Time;durP1;ratioP1;P1;durP2;ratioP2;P2;SDS_P1;SDS_P2;PMS_P1;PMS_P2;Temp;Humidity;BMP_temperature;BMP_pressure;BME280_temperature;BME280_humidity;BME280_pressure;Samples;Min_cycle;Max_cycle;Signal;HPM_P1;HPM_P2
2023/08/22 00:01:26;;;;;;;3.42;3.03;;;31.40;49.40;;;;;;5049291;28;45299;-73
2023/08/22 00:03:56;;;;;;;3.65;3.35;;;31.40;49.50;;;;;;5049455;28;45366;-72
2023/08/22 00:06:24;;;;;;;3.67;3.38;;;31.40;48.90;;;;;;5049519;28;45277;-72
2023/08/22 00:08:50;;;;;;;3.97;3.67;;;31.40;49.00;;;;;;5049497;28;45365;-73
2023/08/22 00:11:17;;;;;;;3.10;2.80;;;31.40;48.90;;;;;;5049156;28;46282;-73
2023/08/22 00:13:44;;;;;;;3.97;3.10;;;31.30;48.90;;;;;;5049143;28;45272;-73
2023/08/22 00:16:11;;;;;;;5.20;3.45;;;31.30;49.00;;;;;;5049337;28;45441;-74
2023/08/22 00:18:39;;;;;;;3.78;3.45;;;31.30;49.00;;;;;;5049429;28;45390;-74
2023/08/22 00:21:06;;;;;;;3.35;2.92;;;31.30;49.10;;;;;;5049097;28;46370;-73
2023/08/22 00:23:33;;;;;;;3.92;3.55;;;31.20;49.10;;;;;;5049281;28;45251;-73
2023/08/22 00:26:00;;;;;;;5.43;3.63;;;31.20;49.10;;;;;;5049609;28;45366;-73
2023/08/22 00:28:26;;;;;;;4.15;3.75;;;31.20;49.10;;;;;;5049524;28;45385;-73
2023/08/22 00:30:54;;;;;;;3.53;3.22;;;31.20;49.20;;;;;;5048876;28;46652;-73
2023/08/22 00:33:21;;;;;;;4.25;3.40;;;31.10;49.20;;;;;;5048976;28;45368;-73
2023/08/22 00:35:49;;;;;;;3.75;3.45;;;31.10;49.20;;;;;;5048898;28;45325;-73
2023/08/22 00:38:16;;;;;;;3.90;3.60;;;31.10;49.20;;;;;;5049367;28;45341;-73
2023/08/22 00:40:42;;;;;;;3.38;3.08;;;31.10;49.30;;;;;;5048708;28;46390;-73
2023/08/22 00:43:09;;;;;;;3.80;3.33;;;31.10;49.30;;;;;;5048646;28;45477;-71
2023/08/22 00:45:36;;;;;;;3.58;3.30;;;31.10;49.30;;;;;;5048103;28;45290;-73
2023/08/22 00:48:04;;;;;;;3.92;3.60;;;31.10;49.30;;;;;;5048828;28;45183;-73
2023/08/22 00:50:31;;;;;;;3.65;3.35;;;31.10;49.30;;;;;;5048613;28;46253;-73
2023/08/22 00:52:59;;;;;;;3.47;3.28;;;31.00;49.30;;;;;;5048176;28;45329;-72
2023/08/22 00:55:26;;;;;;;3.90;3.53;;;31.00;49.30;;;;;;5048906;28;45324;-72
2023/08/22 00:57:53;;;;;;;3.20;3.00;;;30.90;49.30;;;;;;5048868;28;45356;-72
2023/08/22 01:00:20;;;;;;;3.58;3.28;;;31.00;49.40;;;;;;5048539;28;46439;-73
2023/08/22 01:02:46;;;;;;;3.50;3.20;;;30.90;49.30;;;;;;5048447;28;45389;-73
2023/08/22 01:05:13;;;;;;;3.75;3.47;;;30.90;49.40;;;;;;5048532;28;45307;-73
2023/08/22 01:07:45;;;;;;;5.15;3.25;;;30.90;49.40;;;;;;5048459;28;45414;-72
2023/08/22 01:10:15;;;;;;;3.40;3.10;;;30.90;49.50;;;;;;5048002;28;45362;-72
2023/08/22 01:12:46;;;;;;;3.38;3.08;;;30.80;49.40;;;;;;5048439;28;45294;-72
2023/08/22 01:15:18;;;;;;;3.70;3.17;;;30.80;49.50;;;;;;5048307;28;45353;-73
2023/08/22 01:17:44;;;;;;;4.63;3.35;;;30.80;49.50;;;;;;5045886;28;45342;-72
2023/08/22 01:20:12;;;;;;;3.55;3.30;;;30.80;49.60;;;;;;5048233;28;45453;-73
2023/08/22 01:22:41;;;;;;;4.18;2.80;;;30.80;49.60;;;;;;5047983;28;45250;-72
2023/08/22 01:25:08;;;;;;;4.05;3.72;;;30.70;50.20;;;;;;5048181;28;45255;-73
2023/08/22 01:27:36;;;;;;;4.32;3.22;;;30.70;49.60;;;;;;5048639;28;45291;-72
2023/08/22 01:30:07;;;;;;;3.63;3.33;;;30.70;49.70;;;;;;5048044;28;47669;-73
2023/08/22 01:32:36;;;;;;;3.78;3.47;;;30.60;49.60;;;;;;5048102;28;45262;-72
2023/08/22 01:35:04;;;;;;;3.70;3.40;;;30.60;49.70;;;;;;5048074;28;45284;-72
2023/08/22 01:37:31;;;;;;;3.60;3.30;;;30.60;49.70;;;;;;5047806;28;45477;-70
2023/08/22 01:39:59;;;;;;;3.88;3.13;;;30.60;49.70;;;;;;5046971;28;45356;-72
2023/08/22 01:42:26;;;;;;;3.60;3.30;;;30.60;49.70;;;;;;5047750;28;45419;-72
2023/08/22 01:44:53;;;;;;;3.25;2.95;;;30.60;49.70;;;;;;5047982;28;45468;-73
2023/08/22 01:47:20;;;;;;;3.55;3.25;;;30.60;49.80;;;;;;5048182;28;45426;-73
2023/08/22 01:49:46;;;;;;;3.90;3.60;;;30.60;49.80;;;;;;5047616;28;46653;-73
2023/08/22 01:52:13;;;;;;;3.75;3.30;;;30.50;49.80;;;;;;5047643;28;45295;-73
2023/08/22 01:54:40;;;;;;;3.90;3.50;;;30.50;49.80;;;;;;5047665;28;45341;-73
2023/08/22 01:57:08;;;;;;;3.45;3.15;;;30.50;49.80;;;;;;5047979;28;45365;-73
2023/08/22 01:59:35;;;;;;;3.53;3.22;;;30.50;49.90;;;;;;5047566;28;46389;-73
2023/08/22 02:02:02;;;;;;;3.58;3.28;;;30.40;49.80;;;;;;5047592;28;45323;-73
2023/08/22 02:04:29;;;;;;;3.88;3.50;;;30.40;49.90;;;;;;5047715;28;45268;-73
2023/08/22 02:06:56;;;;;;;3.97;3.55;;;30.40;49.90;;;;;;5047812;28;45351;-73
2023/08/22 02:09:22;;;;;;;3.38;3.13;;;30.40;50.00;;;;;;5047170;28;47238;-73
2023/08/22 02:11:49;;;;;;;3.70;3.30;;;30.30;50.00;;;;;;5047399;28;45246;-73
2023/08/22 02:14:17;;;;;;;3.17;2.92;;;30.30;50.00;;;;;;5047544;28;45303;-73
2023/08/22 02:16:45;;;;;;;3.40;3.10;;;30.30;50.00;;;;;;5047664;28;45117;-73
2023/08/22 02:19:12;;;;;;;3.60;3.30;;;30.30;50.00;;;;;;5047361;28;47690;-73
2023/08/22 02:21:38;;;;;;;3.47;3.17;;;30.30;50.00;;;;;;5046830;28;45419;-73
2023/08/22 02:24:06;;;;;;;3.45;3.15;;;30.30;50.00;;;;;;5046461;28;45250;-73
2023/08/22 02:26:33;;;;;;;3.70;3.40;;;30.30;50.00;;;;;;5047297;28;45521;-73
2023/08/22 02:29:00;;;;;;;4.10;3.05;;;30.30;50.00;;;;;;5046894;28;46371;-73
2023/08/22 02:31:30;;;;;;;3.40;3.10;;;30.20;50.00;;;;;;5047146;28;45317;-73
2023/08/22 02:33:57;;;;;;;4.13;3.40;;;30.20;50.10;;;;;;5047087;28;45225;-72
2023/08/22 02:36:23;;;;;;;3.17;2.88;;;30.20;50.60;;;;;;5047543;28;45481;-72
2023/08/22 02:38:50;;;;;;;3.35;3.15;;;30.20;50.10;;;;;;5047003;28;45471;-73
2023/08/22 02:41:17;;;;;;;3.88;3.40;;;30.10;50.10;;;;;;5047228;28;45281;-73
2023/08/22 02:43:44;;;;;;;3.40;3.08;;;30.10;50.10;;;;;;5046967;28;45342;-72
2023/08/22 02:46:11;;;;;;;4.22;3.53;;;30.10;50.20;;;;;;5046999;28;45437;-73
2023/08/22 02:48:39;;;;;;;3.88;3.58;;;30.10;50.20;;;;;;5046798;28;46812;-73
2023/08/22 02:51:06;;;;;;;3.85;3.45;;;30.00;50.10;;;;;;5046878;28;45301;-73
2023/08/22 02:53:33;;;;;;;3.40;3.10;;;30.00;50.20;;;;;;5046630;28;45447;-73
2023/08/22 02:56:00;;;;;;;3.72;3.42;;;30.00;50.20;;;;;;5046974;28;45329;-73
2023/08/22 02:58:27;;;;;;;3.75;3.25;;;30.00;50.20;;;;;;5046772;28;45555;-72
2023/08/22 03:00:55;;;;;;;3.40;3.10;;;30.00;50.20;;;;;;5046707;28;45195;-73
2023/08/22 03:03:21;;;;;;;3.53;3.30;;;30.00;50.20;;;;;;5046718;28;45207;-73
2023/08/22 03:05:50;;;;;;;3.25;2.95;;;30.00;50.30;;;;;;5046911;28;45397;-73
2023/08/22 03:08:16;;;;;;;3.92;3.47;;;30.00;50.30;;;;;;5046386;28;45388;-72
2023/08/22 03:10:43;;;;;;;3.55;2.85;;;30.00;50.30;;;;;;5045952;28;45349;-73
2023/08/22 03:13:10;;;;;;;3.75;3.22;;;29.90;50.20;;;;;;5046427;28;45335;-73
2023/08/22 03:15:37;;;;;;;3.97;3.15;;;29.90;50.20;;;;;;5046911;28;45271;-73
2023/08/22 03:18:04;;;;;;;3.60;3.30;;;29.90;50.30;;;;;;5046340;28;46611;-73
2023/08/22 03:20:31;;;;;;;3.22;3.03;;;29.90;50.30;;;;;;5046307;28;45372;-73
2023/08/22 03:23:00;;;;;;;3.58;3.28;;;29.90;50.30;;;;;;5046530;28;45270;-73
2023/08/22 03:25:27;;;;;;;3.60;3.30;;;29.90;50.30;;;;;;5046541;28;45584;-73
2023/08/22 03:27:54;;;;;;;3.80;3.50;;;29.80;50.30;;;;;;5046169;28;45379;-73
2023/08/22 03:30:21;;;;;;;3.75;3.45;;;29.80;50.30;;;;;;5046044;28;45455;-73
2023/08/22 03:32:48;;;;;;;3.97;3.22;;;29.80;50.30;;;;;;5046347;28;45288;-73
2023/08/22 03:35:14;;;;;;;4.00;3.60;;;29.80;50.40;;;;;;5046819;28;45302;-73
2023/08/22 03:37:41;;;;;;;3.40;3.10;;;29.80;50.50;;;;;;5046479;28;46763;-73
2023/08/22 03:40:11;;;;;;;3.60;3.30;;;29.80;50.50;;;;;;5046536;28;45240;-73
2023/08/22 03:42:37;;;;;;;3.60;3.30;;;29.70;50.50;;;;;;5046662;28;45384;-73
2023/08/22 03:45:05;;;;;;;3.67;3.38;;;29.70;50.40;;;;;;5046714;28;45343;-73
2023/08/22 03:47:32;;;;;;;4.32;3.30;;;29.70;50.50;;;;;;5046439;28;46428;-73
2023/08/22 03:49:59;;;;;;;3.85;3.13;;;29.70;50.50;;;;;;5046094;28;45264;-72
2023/08/22 03:52:25;;;;;;;3.88;3.40;;;29.70;50.50;;;;;;5046147;28;45358;-72
2023/08/22 03:54:52;;;;;;;3.65;3.35;;;29.70;50.40;;;;;;5045875;28;45397;-73
2023/08/22 03:57:21;;;;;;;3.75;3.22;;;29.60;50.40;;;;;;5045686;28;47554;-72
2023/08/22 03:59:48;;;;;;;4.25;3.70;;;29.60;50.40;;;;;;5045702;28;45331;-72
2023/08/22 04:02:15;;;;;;;3.67;3.38;;;29.60;50.40;;;;;;5046115;28;45384;-72
2023/08/22 04:04:42;;;;;;;3.55;3.00;;;29.60;50.50;;;;;;5046156;28;45452;-72
2023/08/22 04:07:08;;;;;;;4.13;3.60;;;29.60;50.50;;;;;;5045779;28;45525;-72
2023/08/22 04:09:35;;;;;;;3.60;3.20;;;29.60;50.50;;;;;;5045636;28;45238;-72
2023/08/22 04:12:02;;;;;;;3.42;3.08;;;29.60;50.50;;;;;;5046011;28;45271;-73
2023/08/22 04:14:30;;;;;;;3.22;2.92;;;29.50;50.50;;;;;;5045900;28;45405;-73
2023/08/22 04:16:57;;;;;;;3.85;3.33;;;29.60;51.20;;;;;;5042981;28;46159;-72
2023/08/22 04:19:24;;;;;;;3.20;3.00;;;29.50;50.60;;;;;;5045671;28;45568;-72
2023/08/22 04:21:52;;;;;;;3.53;3.22;;;29.50;50.60;;;;;;5045762;28;45358;-71
2023/08/22 04:24:18;;;;;;;3.40;3.10;;;29.50;50.60;;;;;;5045806;28;45424;-72
2023/08/22 04:26:45;;;;;;;3.30;3.10;;;29.50;50.70;;;;;;5045486;28;45462;-72
2023/08/22 04:29:12;;;;;;;3.15;2.90;;;29.50;50.70;;;;;;5045249;28;45449;-72
2023/08/22 04:31:40;;;;;;;3.58;3.28;;;29.40;50.60;;;;;;5045632;28;45449;-72
2023/08/22 04:34:08;;;;;;;3.22;3.00;;;29.40;50.60;;;;;;5045757;28;45472;-73
2023/08/22 04:36:34;;;;;;;3.60;3.30;;;29.40;50.70;;;;;;5045404;28;47189;-73
2023/08/22 04:39:02;;;;;;;3.55;3.28;;;29.40;50.70;;;;;;5045154;28;45305;-72
2023/08/22 04:41:29;;;;;;;3.70;3.20;;;29.30;50.60;;;;;;5045753;28;45447;-72
2023/08/22 04:43:56;;;;;;;3.30;3.00;;;29.30;50.70;;;;;;5044780;28;45468;-73
2023/08/22 04:46:23;;;;;;;3.40;3.10;;;29.30;50.60;;;;;;5047442;28;47281;-73
2023/08/22 04:48:51;;;;;;;3.53;3.22;;;29.30;50.70;;;;;;5048572;28;45284;-73
2023/08/22 04:51:18;;;;;;;3.53;3.20;;;29.30;50.70;;;;;;5048774;28;45363;-72
2023/08/22 04:53:45;;;;;;;3.28;2.97;;;29.30;50.70;;;;;;5048656;28;45441;-72
2023/08/22 04:56:12;;;;;;;3.53;3.17;;;29.30;50.70;;;;;;5048319;28;45436;-72
2023/08/22 04:58:39;;;;;;;3.50;3.20;;;29.30;50.80;;;;;;5048917;28;45256;-72
2023/08/22 05:01:06;;;;;;;3.40;3.13;;;29.30;50.80;;;;;;5048751;28;45402;-72
2023/08/22 05:03:33;;;;;;;4.68;3.63;;;29.20;50.80;;;;;;5048663;28;45322;-72
2023/08/22 05:06:01;;;;;;;4.30;3.33;;;29.20;50.80;;;;;;5048344;28;45813;-72
2023/08/22 05:08:28;;;;;;;3.10;2.80;;;29.20;50.80;;;;;;5048495;28;45201;-72
2023/08/22 05:10:55;;;;;;;3.22;3.03;;;29.20;50.90;;;;;;5048383;28;45420;-72
2023/08/22 05:13:22;;;;;;;4.03;3.15;;;29.20;50.80;;;;;;5048497;28;45283;-72
2023/08/22 05:15:49;;;;;;;3.40;3.10;;;29.20;50.80;;;;;;5048176;28;45360;-72
2023/08/22 05:18:15;;;;;;;3.40;3.10;;;29.20;50.80;;;;;;5048144;28;45378;-72
2023/08/22 05:20:42;;;;;;;3.67;3.30;;;29.20;50.80;;;;;;5048656;28;45303;-72
2023/08/22 05:23:10;;;;;;;3.55;3.25;;;29.20;50.80;;;;;;5048482;28;45638;-72
2023/08/22 05:25:37;;;;;;;3.10;2.80;;;29.20;50.80;;;;;;5047775;28;47555;-72
2023/08/22 05:28:05;;;;;;;3.28;2.97;;;29.20;50.80;;;;;;5047684;28;45342;-70
2023/08/22 05:30:31;;;;;;;3.20;2.95;;;29.10;50.70;;;;;;5047523;28;45232;-72
2023/08/22 05:32:58;;;;;;;3.90;3.00;;;29.10;50.70;;;;;;5048609;28;45255;-72
2023/08/22 05:35:25;;;;;;;3.80;3.50;;;29.10;50.70;;;;;;5047806;28;46302;-72
2023/08/22 05:37:52;;;;;;;3.33;3.13;;;29.20;50.70;;;;;;5047878;28;45341;-72
2023/08/22 05:40:20;;;;;;;3.20;3.00;;;29.10;50.70;;;;;;5048026;28;45390;-72
2023/08/22 05:42:47;;;;;;;3.70;3.40;;;29.10;51.20;;;;;;5048149;28;45333;-72
2023/08/22 05:45:14;;;;;;;3.70;3.35;;;29.10;50.70;;;;;;5047625;28;45332;-72
2023/08/22 05:47:41;;;;;;;4.00;3.65;;;29.10;50.70;;;;;;5047728;28;45330;-72
2023/08/22 05:50:08;;;;;;;3.35;2.83;;;29.10;50.70;;;;;;5047728;28;45327;-71
2023/08/22 05:52:35;;;;;;;3.50;3.20;;;29.10;50.60;;;;;;5047806;28;45406;-71
2023/08/22 05:55:03;;;;;;;3.80;3.50;;;29.10;50.60;;;;;;5047507;28;46897;-72
2023/08/22 05:57:31;;;;;;;3.17;2.88;;;29.10;50.60;;;;;;5046452;28;45260;-72
2023/08/22 05:59:58;;;;;;;3.70;3.10;;;29.10;51.20;;;;;;5047772;28;45365;-71
2023/08/22 06:02:25;;;;;;;4.35;3.15;;;29.10;50.60;;;;;;5048173;28;45303;-72
2023/08/22 06:04:52;;;;;;;5.07;3.10;;;29.10;50.70;;;;;;5047308;28;46379;-72
2023/08/22 06:07:19;;;;;;;3.50;3.30;;;29.10;50.60;;;;;;5047256;28;45264;-71
2023/08/22 06:09:46;;;;;;;3.63;3.33;;;29.10;50.60;;;;;;5047759;28;45435;-72
2023/08/22 06:12:13;;;;;;;3.03;2.83;;;29.10;50.60;;;;;;5047631;28;45432;-72
2023/08/22 06:14:41;;;;;;;3.40;3.10;;;29.10;50.60;;;;;;5046376;28;45479;-72
2023/08/22 06:17:09;;;;;;;3.17;2.97;;;29.10;50.70;;;;;;5047208;28;45154;-72
2023/08/22 06:19:35;;;;;;;3.25;3.00;;;29.10;50.60;;;;;;5047473;28;45223;-72
2023/08/22 06:22:03;;;;;;;3.08;2.85;;;29.10;50.60;;;;;;5047432;28;45244;-72
2023/08/22 06:24:29;;;;;;;3.60;3.30;;;29.10;50.60;;;;;;5046793;28;45547;-72
2023/08/22 06:26:56;;;;;;;3.40;3.10;;;29.10;50.70;;;;;;5047107;28;45369;-72
2023/08/22 06:29:23;;;;;;;3.00;2.80;;;29.10;50.70;;;;;;5047097;28;45277;-72
2023/08/22 06:31:51;;;;;;;3.13;2.83;;;29.10;50.60;;;;;;5047268;28;45302;-72
2023/08/22 06:34:18;;;;;;;3.13;2.83;;;29.10;50.60;;;;;;5046869;28;46434;-72
2023/08/22 06:36:45;;;;;;;3.25;2.95;;;29.10;50.70;;;;;;5046956;28;45370;-72
2023/08/22 06:39:12;;;;;;;5.45;3.53;;;29.10;50.70;;;;;;5047022;28;45493;-72
2023/08/22 06:41:38;;;;;;;3.50;3.20;;;29.10;50.60;;;;;;5047196;28;45410;-72
2023/08/22 06:44:08;;;;;;;3.25;3.03;;;29.10;50.70;;;;;;5046667;28;46709;-72
2023/08/22 06:46:36;;;;;;;3.25;2.95;;;29.10;50.60;;;;;;5047019;28;45391;-72
2023/08/22 06:49:04;;;;;;;3.45;3.15;;;29.10;50.60;;;;;;5047109;28;45383;-72
2023/08/22 06:51:31;;;;;;;3.50;3.20;;;29.10;50.70;;;;;;5046964;28;45468;-72
2023/08/22 06:53:58;;;;;;;3.25;2.95;;;29.10;50.70;;;;;;5046234;28;45479;-72
2023/08/22 06:56:24;;;;;;;2.85;2.65;;;29.10;51.20;;;;;;5046786;28;45486;-71
2023/08/22 06:58:51;;;;;;;3.13;2.83;;;29.10;50.60;;;;;;5047002;28;45286;-71
2023/08/22 07:01:24;;;;;;;4.43;3.30;;;29.10;50.70;;;;;;5046404;28;45294;-71
2023/08/22 07:03:51;;;;;;;4.75;3.42;;;29.10;50.70;;;;;;5045639;28;45374;-71
2023/08/22 07:06:19;;;;;;;3.78;3.20;;;29.20;50.70;;;;;;5046387;28;45429;-72
2023/08/22 07:08:46;;;;;;;3.28;2.97;;;29.20;50.70;;;;;;5046220;28;45358;-71
2023/08/22 07:11:13;;;;;;;3.55;3.13;;;29.20;50.70;;;;;;5046753;28;45134;-71
2023/08/22 07:13:40;;;;;;;3.58;2.92;;;29.20;50.70;;;;;;5046081;28;47131;-71
2023/08/22 07:16:07;;;;;;;3.15;2.95;;;29.20;50.70;;;;;;5046320;28;45314;-71
2023/08/22 07:18:34;;;;;;;3.85;3.50;;;29.20;50.70;;;;;;5046570;28;45255;-72
2023/08/22 07:21:04;;;;;;;3.10;2.80;;;29.20;50.70;;;;;;5046648;28;45427;-71
2023/08/22 07:23:32;;;;;;;2.92;2.72;;;29.20;50.70;;;;;;5046393;28;48015;-73
2023/08/22 07:26:00;;;;;;;3.50;2.92;;;29.20;50.60;;;;;;5046349;28;45251;-71
2023/08/22 07:28:27;;;;;;;3.08;2.88;;;29.30;50.70;;;;;;5046313;28;45212;-71
2023/08/22 07:30:54;;;;;;;3.60;3.30;;;29.30;50.70;;;;;;5046361;28;45268;-72
2023/08/22 07:33:21;;;;;;;3.33;3.03;;;29.30;50.70;;;;;;5045809;28;45352;-70
2023/08/22 07:35:48;;;;;;;3.30;3.10;;;29.30;50.60;;;;;;5046351;28;45373;-70
2023/08/22 07:38:15;;;;;;;3.53;3.22;;;29.30;50.60;;;;;;5046283;28;45327;-69
2023/08/22 07:40:43;;;;;;;5.93;2.88;;;29.30;50.70;;;;;;5046327;28;45310;-70
2023/08/22 07:43:10;;;;;;;9.23;3.72;;;29.30;51.00;;;;;;5046049;28;45401;-70
2023/08/22 07:45:36;;;;;;;4.07;3.67;;;29.30;51.60;;;;;;5045903;28;45314;-70
2023/08/22 07:48:04;;;;;;;4.72;4.25;;;29.30;52.00;;;;;;5046150;28;45235;-69
2023/08/22 07:50:31;;;;;;;5.35;4.53;;;29.30;52.90;;;;;;5045304;28;45326;-70
2023/08/22 07:52:58;;;;;;;6.32;4.85;;;29.30;52.90;;;;;;5045345;28;46446;-71
2023/08/22 07:55:26;;;;;;;4.65;4.03;;;29.30;52.90;;;;;;5045766;28;45393;-71
2023/08/22 07:57:55;;;;;;;8.43;4.50;;;29.30;52.70;;;;;;5045970;28;45368;-72
2023/08/22 08:00:22;;;;;;;6.00;4.60;;;29.30;53.70;;;;;;5046168;28;45298;-72
2023/08/22 08:02:49;;;;;;;8.30;4.50;;;29.40;52.90;;;;;;5045848;28;45354;-72
2023/08/22 08:05:16;;;;;;;9.05;4.35;;;29.40;52.80;;;;;;5045705;28;45432;-72
2023/08/22 08:07:42;;;;;;;7.15;4.75;;;29.40;52.50;;;;;;5045633;28;45278;-72
2023/08/22 08:10:10;;;;;;;8.10;4.30;;;29.40;52.30;;;;;;5045664;28;45325;-72
2023/08/22 08:12:37;;;;;;;5.68;4.32;;;29.50;52.30;;;;;;5045807;28;46876;-72
2023/08/22 08:15:07;;;;;;;3.92;3.63;;;29.50;52.00;;;;;;5045550;28;45436;-72
2023/08/22 08:17:34;;;;;;;5.45;4.15;;;29.50;51.90;;;;;;5045806;28;45321;-71
2023/08/22 08:20:03;;;;;;;4.32;3.80;;;29.60;51.80;;;;;;5046346;28;45184;-71
2023/08/22 08:22:29;;;;;;;4.10;3.58;;;29.60;51.60;;;;;;5049111;28;45330;-72
2023/08/22 08:24:56;;;;;;;5.00;3.83;;;29.60;51.50;;;;;;5049015;28;45416;-71
2023/08/22 08:27:23;;;;;;;4.75;3.58;;;29.70;51.40;;;;;;5049267;28;45343;-71
2023/08/22 08:29:50;;;;;;;4.75;3.53;;;29.70;51.30;;;;;;5048991;28;45467;-71
2023/08/22 08:32:18;;;;;;;4.35;3.83;;;29.70;51.10;;;;;;5048940;28;45396;-71
2023/08/22 08:34:45;;;;;;;3.85;3.50;;;29.70;51.10;;;;;;5048683;28;45356;-70
2023/08/22 08:37:12;;;;;;;4.22;3.80;;;29.70;51.00;;;;;;5048155;28;45424;-72
2023/08/22 08:39:38;;;;;;;5.00;3.70;;;29.70;51.00;;;;;;5049153;28;45317;-72
2023/08/22 08:42:08;;;;;;;5.68;3.33;;;29.80;51.10;;;;;;5048741;28;46387;-72
2023/08/22 08:44:35;;;;;;;5.00;4.18;;;29.80;51.00;;;;;;5048526;28;45461;-72
2023/08/22 08:47:02;;;;;;;4.00;3.63;;;29.90;50.90;;;;;;5049265;28;45356;-72
2023/08/22 08:49:32;;;;;;;4.90;3.97;;;29.90;50.90;;;;;;5048970;28;45409;-72
2023/08/22 08:51:59;;;;;;;6.30;3.97;;;29.90;50.90;;;;;;5048259;28;46395;-72
2023/08/22 08:54:26;;;;;;;4.22;3.83;;;30.00;50.90;;;;;;5048492;28;45413;-71
2023/08/22 08:56:53;;;;;;;4.18;3.80;;;30.00;51.00;;;;;;5046258;28;45401;-72
2023/08/22 08:59:20;;;;;;;4.07;3.45;;;30.00;51.10;;;;;;5048851;28;45326;-71
2023/08/22 09:01:46;;;;;;;4.28;3.58;;;30.00;51.00;;;;;;5048324;28;47271;-72
2023/08/22 09:04:13;;;;;;;4.82;4.30;;;30.00;50.90;;;;;;5048377;28;45231;-72
2023/08/22 09:06:41;;;;;;;4.35;4.05;;;30.00;50.90;;;;;;5048621;28;45258;-72
2023/08/22 09:09:08;;;;;;;3.75;3.45;;;30.10;50.90;;;;;;5048544;28;45417;-73
2023/08/22 09:11:35;;;;;;;3.80;3.50;;;30.10;50.90;;;;;;5045625;28;45310;-72
2023/08/22 09:14:02;;;;;;;4.10;3.80;;;30.20;50.80;;;;;;5047967;28;45333;-72
2023/08/22 09:16:30;;;;;;;3.72;3.45;;;30.20;50.70;;;;;;5048574;28;45343;-72
2023/08/22 09:18:59;;;;;;;4.55;3.83;;;30.20;50.70;;;;;;5048489;28;45528;-72
2023/08/22 09:21:26;;;;;;;4.22;3.83;;;30.20;50.60;;;;;;5047789;28;45239;-71
2023/08/22 09:23:56;;;;;;;3.65;3.30;;;30.20;50.60;;;;;;5047508;28;45378;-73
2023/08/22 09:26:24;;;;;;;4.18;3.88;;;30.30;50.50;;;;;;5048237;28;45313;-72
2023/08/22 09:28:51;;;;;;;4.25;3.85;;;30.30;50.40;;;;;;5048327;28;45284;-73
2023/08/22 09:31:23;;;;;;;4.22;3.83;;;30.30;50.30;;;;;;5029857;28;46367;-72
2023/08/22 09:33:50;;;;;;;5.28;3.90;;;30.30;50.40;;;;;;5048054;28;45325;-72
2023/08/22 09:36:20;;;;;;;4.03;3.63;;;30.40;50.40;;;;;;5048384;28;45250;-73
2023/08/22 09:38:59;;;;;;;4.35;3.97;;;30.40;50.50;;;;;;5048167;28;45339;-73
2023/08/22 09:41:26;;;;;;;4.18;3.88;;;30.50;50.50;;;;;;5047915;28;46372;-72
2023/08/22 09:43:54;;;;;;;4.22;3.85;;;30.50;50.60;;;;;;5047921;28;45435;-72
2023/08/22 09:46:21;;;;;;;3.95;3.65;;;30.50;50.50;;;;;;5048019;28;45350;-73
2023/08/22 09:48:48;;;;;;;3.95;3.65;;;30.50;50.60;;;;;;5048209;28;45365;-73
2023/08/22 09:51:17;;;;;;;4.22;3.90;;;30.60;50.60;;;;;;5047760;28;47880;-73
2023/08/22 09:53:43;;;;;;;4.18;3.80;;;30.60;50.60;;;;;;5047201;28;45314;-71
2023/08/22 09:56:12;;;;;;;4.00;3.65;;;30.60;50.70;;;;;;5047801;28;45714;-72
2023/08/22 09:58:38;;;;;;;4.25;3.85;;;30.60;50.60;;;;;;5048032;28;45361;-72
2023/08/22 10:01:05;;;;;;;4.95;3.97;;;30.60;50.70;;;;;;5047544;28;46737;-72
2023/08/22 10:03:32;;;;;;;4.03;3.72;;;30.70;50.80;;;;;;5047450;28;45279;-72
2023/08/22 10:05:59;;;;;;;3.95;3.65;;;30.70;50.80;;;;;;5047592;28;45251;-72
2023/08/22 10:08:26;;;;;;;4.10;3.70;;;30.70;50.80;;;;;;5047774;28;45330;-72
2023/08/22 10:10:52;;;;;;;4.18;3.78;;;30.80;50.80;;;;;;5047380;28;45720;-72
2023/08/22 10:13:21;;;;;;;4.07;3.53;;;30.80;51.40;;;;;;5047488;28;45396;-72
2023/08/22 10:15:48;;;;;;;3.70;3.40;;;30.80;50.80;;;;;;5047831;28;45294;-71
2023/08/22 10:18:15;;;;;;;3.90;3.55;;;30.80;50.70;;;;;;5046935;28;45131;-72
2023/08/22 10:20:42;;;;;;;4.53;3.83;;;30.90;50.70;;;;;;5047121;28;45444;-72
2023/08/22 10:23:09;;;;;;;4.25;3.85;;;30.90;50.70;;;;;;5047306;28;45369;-72
2023/08/22 10:25:49;;;;;;;4.55;4.15;;;30.90;50.70;;;;;;5047465;28;45294;-72
2023/08/22 10:28:16;;;;;;;4.38;3.90;;;31.00;50.70;;;;;;5047946;28;45299;-71
2023/08/22 10:31:03;;;;;;;5.63;3.90;;;31.00;51.30;;;;;;5047300;28;46617;-70
2023/08/22 10:33:30;;;;;;;6.55;3.88;;;31.00;51.30;;;;;;5054811;28;45500;-72
2023/08/22 10:36:08;;;;;;;8.65;4.10;;;31.10;52.20;;;;;;5063006;28;45404;-71
2023/08/22 10:38:54;;;;;;;4.20;3.72;;;31.10;53.00;;;;;;5053914;28;45437;-73
2023/08/22 10:41:22;;;;;;;13.00;5.38;;;31.10;52.20;;;;;;5061571;28;47045;-73
2023/08/22 10:43:49;;;;;;;14.02;4.28;;;31.10;52.40;;;;;;5053933;28;45365;-73
2023/08/22 10:46:17;;;;;;;24.17;5.60;;;31.10;52.80;;;;;;5068292;28;45275;-71
2023/08/22 10:48:46;;;;;;;14.77;5.20;;;31.20;52.50;;;;;;5055717;28;45279;-73
2023/08/22 10:51:13;;;;;;;17.85;4.88;;;31.30;52.90;;;;;;5059859;28;46926;-72
2023/08/22 10:53:43;;;;;;;26.98;5.93;;;31.30;53.40;;;;;;5068918;28;45365;-73
2023/08/22 10:56:24;;;;;;;15.60;3.85;;;31.40;53.10;;;;;;5061123;28;45268;-73
2023/08/22 10:59:00;;;;;;;12.60;4.68;;;31.50;52.70;;;;;;5063344;28;45381;-71
2023/08/22 11:01:33;;;;;;;12.57;4.40;;;31.60;52.90;;;;;;5067016;28;46090;-72
2023/08/22 11:04:00;;;;;;;9.27;4.18;;;31.60;51.90;;;;;;5069701;28;45455;-73
2023/08/22 11:06:27;;;;;;;17.33;4.90;;;31.70;52.10;;;;;;5068980;28;45286;-71
2023/08/22 11:08:54;;;;;;;8.82;4.32;;;31.80;52.80;;;;;;5069783;28;45432;-69
2023/08/22 11:11:21;;;;;;;7.30;4.30;;;31.80;53.20;;;;;;5068855;28;45726;-72
2023/08/22 11:13:48;;;;;;;8.15;4.28;;;31.90;53.10;;;;;;5069684;28;45336;-73
2023/08/22 11:16:16;;;;;;;11.48;4.30;;;32.00;52.40;;;;;;5062245;28;45583;-73
2023/08/22 11:18:44;;;;;;;16.60;4.30;;;32.10;53.10;;;;;;5048973;28;45267;-72
2023/08/22 11:21:11;;;;;;;5.82;3.85;;;32.20;52.90;;;;;;5057175;28;47298;-76
2023/08/22 11:23:38;;;;;;;8.15;4.15;;;32.20;52.90;;;;;;5064354;28;45445;-75
2023/08/22 11:26:07;;;;;;;5.05;3.90;;;32.30;50.50;;;;;;5071018;28;45405;-73
2023/08/22 11:28:35;;;;;;;7.72;4.00;;;32.40;52.20;;;;;;5059415;28;45250;-75
2023/08/22 11:31:17;;;;;;;15.00;4.28;;;32.40;51.40;;;;;;5050570;28;46295;-75
2023/08/22 11:33:47;;;;;;;11.43;3.47;;;32.50;51.90;;;;;;5046114;28;45398;-75
2023/08/22 11:36:15;;;;;;;15.18;4.45;;;32.50;51.00;;;;;;5049593;28;45387;-75
2023/08/22 11:38:42;;;;;;;5.90;3.65;;;32.60;50.70;;;;;;5049736;28;45539;-79
2023/08/22 11:41:09;;;;;;;6.68;3.75;;;32.70;51.20;;;;;;5045922;28;45540;-73
2023/08/22 11:43:36;;;;;;;9.23;4.57;;;32.80;50.40;;;;;;5048270;28;45365;-76
2023/08/22 11:46:10;;;;;;;5.78;3.35;;;32.80;50.60;;;;;;5053975;28;45355;-74
2023/08/22 11:48:36;;;;;;;4.75;3.38;;;32.90;50.40;;;;;;5048096;28;45417;-75
2023/08/22 11:51:05;;;;;;;4.32;3.55;;;33.00;50.50;;;;;;5045839;28;45373;-76
2023/08/22 11:53:32;;;;;;;8.60;3.47;;;33.10;49.20;;;;;;5050718;28;45534;-78
2023/08/22 11:55:59;;;;;;;6.97;3.42;;;33.10;49.30;;;;;;5063616;28;45187;-76
2023/08/22 11:58:26;;;;;;;10.27;3.67;;;33.20;51.00;;;;;;5073137;28;45325;-74
2023/08/22 12:00:55;;;;;;;5.55;3.47;;;33.20;50.90;;;;;;5069280;28;46371;-75
2023/08/22 12:03:21;;;;;;;5.65;3.60;;;33.30;50.90;;;;;;5064656;28;45328;-76
2023/08/22 12:05:49;;;;;;;11.02;3.58;;;33.40;49.90;;;;;;5062049;28;45351;-75
2023/08/22 12:08:21;;;;;;;3.83;3.00;;;33.40;50.80;;;;;;5066496;28;45318;-72
2023/08/22 12:10:48;;;;;;;4.20;3.67;;;33.50;49.90;;;;;;5050819;28;45471;-71
2023/08/22 12:13:16;;;;;;;6.68;3.40;;;33.60;51.40;;;;;;5050831;28;45301;-75
2023/08/22 12:15:43;;;;;;;3.72;3.40;;;33.70;49.50;;;;;;5065127;28;45354;-73
2023/08/22 12:18:10;;;;;;;5.05;3.22;;;33.70;49.00;;;;;;5051522;28;45227;-75
2023/08/22 12:20:38;;;;;;;7.45;3.58;;;33.80;50.20;;;;;;5051414;28;45325;-74
2023/08/22 12:23:05;;;;;;;4.15;3.45;;;33.90;48.10;;;;;;5058188;28;45136;-72
2023/08/22 12:25:33;;;;;;;3.70;3.10;;;34.00;47.80;;;;;;5066035;28;45279;-75
2023/08/22 12:28:02;;;;;;;5.57;3.65;;;34.20;47.80;;;;;;5056696;28;45653;-73
2023/08/22 12:30:30;;;;;;;4.15;3.00;;;34.20;48.00;;;;;;5049741;28;45642;-74
2023/08/22 12:32:57;;;;;;;4.18;3.13;;;34.30;47.40;;;;;;5061134;28;45143;-74
2023/08/22 12:35:23;;;;;;;4.57;3.47;;;34.40;47.60;;;;;;5055536;28;45395;-75
2023/08/22 12:37:50;;;;;;;4.03;3.20;;;34.40;48.70;;;;;;5061380;28;45337;-85
2023/08/22 12:40:17;;;;;;;6.40;3.30;;;34.50;48.60;;;;;;5060084;28;45439;-81
2023/08/22 12:42:46;;;;;;;4.45;2.97;;;34.60;48.90;;;;;;5061800;28;45307;-74
2023/08/22 12:45:13;;;;;;;12.02;3.50;;;34.60;49.60;;;;;;5051309;28;45404;-73
2023/08/22 12:47:39;;;;;;;9.60;3.78;;;34.60;49.80;;;;;;5067080;28;45413;-78